sensor_id;sensor_type;location;lat;lon;timestamp;pressure;altitude;pressure_sealevel;temperature;humidity
43071;BME280;36278;47.952;21.714;2023-04-05T00:00:31;100472.66;;;2.30;54.12
43071;BME280;36278;47.952;21.714;2023-04-05T00:02:57;100480.81;;;2.22;53.78
43071;BME280;36278;47.952;21.714;2023-04-05T00:05:24;100475.13;;;2.11;54.24
43071;BME280;36278;47.952;21.714;2023-04-05T00:07:59;100474.34;;;2.09;53.99
43071;BME280;36278;47.952;21.714;2023-04-05T00:10:29;100486.63;;;2.07;54.31
43071;BME280;36278;47.952;21.714;2023-04-05T00:12:59;100458.28;;;1.96;54.84
43071;BME280;36278;47.952;21.714;2023-04-05T00:15:26;100479.47;;;2.12;55.24
43071;BME280;36278;47.952;21.714;2023-04-05T00:17:52;100470.88;;;2.08;54.24
43071;BME280;36278;47.952;21.714;2023-04-05T00:20:18;100473.72;;;2.02;54.01
43071;BME280;36278;47.952;21.714;2023-04-05T00:22:44;100480.03;;;1.96;54.62
43071;BME280;36278;47.952;21.714;2023-04-05T00:25:11;100483.81;;;2.11;54.77
43071;BME280;36278;47.952;21.714;2023-04-05T00:27:38;100477.69;;;2.12;54.08
43071;BME280;36278;47.952;21.714;2023-04-05T00:30:04;100485.81;;;2.05;55.00
43071;BME280;36278;47.952;21.714;2023-04-05T00:32:29;100474.69;;;2.00;55.13
43071;BME280;36278;47.952;21.714;2023-04-05T00:34:55;100483.16;;;2.06;54.84
43071;BME280;36278;47.952;21.714;2023-04-05T00:37:21;100483.09;;;2.08;54.47
43071;BME280;36278;47.952;21.714;2023-04-05T00:39:46;100482.25;;;2.07;54.62
43071;BME280;36278;47.952;21.714;2023-04-05T00:42:12;100487.06;;;1.94;54.86
43071;BME280;36278;47.952;21.714;2023-04-05T00:44:37;100475.19;;;2.09;54.24
43071;BME280;36278;47.952;21.714;2023-04-05T00:47:04;100473.25;;;2.14;54.19
43071;BME280;36278;47.952;21.714;2023-04-05T00:49:32;100485.13;;;2.23;54.20
43071;BME280;36278;47.952;21.714;2023-04-05T00:51:58;100486.31;;;2.14;54.20
43071;BME280;36278;47.952;21.714;2023-04-05T00:54:28;100470.19;;;2.03;55.20
43071;BME280;36278;47.952;21.714;2023-04-05T00:56:58;100475.38;;;2.05;55.68
43071;BME280;36278;47.952;21.714;2023-04-05T00:59:24;100482.81;;;1.92;55.87
43071;BME280;36278;47.952;21.714;2023-04-05T01:04:30;100485.28;;;1.95;55.81
43071;BME280;36278;47.952;21.714;2023-04-05T01:12:17;100483.03;;;1.86;55.46
43071;BME280;36278;47.952;21.714;2023-04-05T01:14:44;100472.66;;;1.84;56.04
43071;BME280;36278;47.952;21.714;2023-04-05T01:17:10;100473.84;;;1.76;56.07
43071;BME280;36278;47.952;21.714;2023-04-05T01:19:35;100465.00;;;1.80;56.56
43071;BME280;36278;47.952;21.714;2023-04-05T01:30:48;100471.72;;;1.62;57.08
43071;BME280;36278;47.952;21.714;2023-04-05T01:33:42;100456.97;;;1.61;56.91
43071;BME280;36278;47.952;21.714;2023-04-05T01:36:31;100469.88;;;1.65;57.44
43071;BME280;36278;47.952;21.714;2023-04-05T01:38:58;100470.53;;;1.71;56.98
43071;BME280;36278;47.952;21.714;2023-04-05T01:41:25;100458.00;;;1.80;56.33
43071;BME280;36278;47.952;21.714;2023-04-05T01:43:51;100466.22;;;1.69;56.83
43071;BME280;36278;47.952;21.714;2023-04-05T01:46:17;100459.03;;;1.76;56.75
43071;BME280;36278;47.952;21.714;2023-04-05T01:48:42;100455.22;;;1.85;56.62
43071;BME280;36278;47.952;21.714;2023-04-05T01:51:08;100460.00;;;1.97;55.15
43071;BME280;36278;47.952;21.714;2023-04-05T01:53:33;100441.25;;;1.86;56.06
43071;BME280;36278;47.952;21.714;2023-04-05T01:56:00;100451.53;;;1.90;55.77
43071;BME280;36278;47.952;21.714;2023-04-05T01:58:26;100457.16;;;1.80;55.50
43071;BME280;36278;47.952;21.714;2023-04-05T02:00:56;100462.81;;;1.91;55.63
43071;BME280;36278;47.952;21.714;2023-04-05T02:03:22;100450.38;;;1.98;55.66
43071;BME280;36278;47.952;21.714;2023-04-05T02:05:48;100460.41;;;2.08;55.49
43071;BME280;36278;47.952;21.714;2023-04-05T02:08:13;100464.72;;;2.09;55.45
43071;BME280;36278;47.952;21.714;2023-04-05T02:10:39;100453.56;;;2.06;55.23
43071;BME280;36278;47.952;21.714;2023-04-05T02:13:05;100461.56;;;2.01;55.11
43071;BME280;36278;47.952;21.714;2023-04-05T02:15:30;100458.50;;;1.90;55.88
43071;BME280;36278;47.952;21.714;2023-04-05T02:17:58;100458.50;;;1.90;55.29
43071;BME280;36278;47.952;21.714;2023-04-05T02:20:26;100450.38;;;1.98;54.26
43071;BME280;36278;47.952;21.714;2023-04-05T02:22:52;100461.78;;;1.95;55.38
43071;BME280;36278;47.952;21.714;2023-04-05T02:25:18;100452.59;;;1.85;54.77
43071;BME280;36278;47.952;21.714;2023-04-05T02:27:44;100445.38;;;1.91;55.59
43071;BME280;36278;47.952;21.714;2023-04-05T02:30:09;100453.22;;;1.91;55.12
43071;BME280;36278;47.952;21.714;2023-04-05T02:32:37;100448.44;;;2.03;54.72
43071;BME280;36278;47.952;21.714;2023-04-05T02:35:03;100440.19;;;2.13;55.57
43071;BME280;36278;47.952;21.714;2023-04-05T02:37:29;100448.81;;;2.15;54.67
43071;BME280;36278;47.952;21.714;2023-04-05T02:39:54;100444.97;;;2.02;55.43
43071;BME280;36278;47.952;21.714;2023-04-05T02:42:20;100448.69;;;1.96;55.01
43071;BME280;36278;47.952;21.714;2023-04-05T02:44:45;100447.00;;;1.95;54.91
43071;BME280;36278;47.952;21.714;2023-04-05T02:47:11;100433.59;;;1.81;55.31
43071;BME280;36278;47.952;21.714;2023-04-05T02:49:36;100447.50;;;1.82;55.82
43071;BME280;36278;47.952;21.714;2023-04-05T02:52:02;100449.44;;;1.77;55.25
43071;BME280;36278;47.952;21.714;2023-04-05T02:54:27;100449.34;;;1.80;55.98
43071;BME280;36278;47.952;21.714;2023-04-05T02:56:52;100457.16;;;1.80;55.62
43071;BME280;36278;47.952;21.714;2023-04-05T02:59:19;100451.81;;;1.83;55.19
43071;BME280;36278;47.952;21.714;2023-04-05T03:01:45;100454.00;;;1.93;55.20
43071;BME280;36278;47.952;21.714;2023-04-05T03:04:11;100456.91;;;1.86;55.41
43071;BME280;36278;47.952;21.714;2023-04-05T03:06:37;100462.03;;;1.89;56.54
43071;BME280;36278;47.952;21.714;2023-04-05T03:09:03;100453.72;;;1.79;56.70
43071;BME280;36278;47.952;21.714;2023-04-05T03:11:29;100461.13;;;1.90;56.34
43071;BME280;36278;47.952;21.714;2023-04-05T03:13:55;100454.28;;;1.87;56.67
43071;BME280;36278;47.952;21.714;2023-04-05T03:16:21;100461.53;;;1.79;57.16
43071;BME280;36278;47.952;21.714;2023-04-05T03:18:49;100453.13;;;1.71;57.52
43071;BME280;36278;47.952;21.714;2023-04-05T03:21:15;100454.78;;;1.74;58.39
43071;BME280;36278;47.952;21.714;2023-04-05T03:23:42;100454.28;;;1.87;57.20
43071;BME280;36278;47.952;21.714;2023-04-05T03:26:11;100448.13;;;1.65;58.15
43071;BME280;36278;47.952;21.714;2023-04-05T03:28:39;100450.91;;;1.60;59.23
43071;BME280;36278;47.952;21.714;2023-04-05T03:31:09;100457.78;;;1.63;60.11
43071;BME280;36278;47.952;21.714;2023-04-05T03:33:35;100458.72;;;1.60;59.75
43071;BME280;36278;47.952;21.714;2023-04-05T03:36:00;100462.88;;;1.66;60.25
43071;BME280;36278;47.952;21.714;2023-04-05T03:38:26;100459.91;;;1.52;60.04
43071;BME280;36278;47.952;21.714;2023-04-05T03:40:53;100442.78;;;1.45;60.21
43071;BME280;36278;47.952;21.714;2023-04-05T03:43:18;100451.03;;;1.57;60.78
43071;BME280;36278;47.952;21.714;2023-04-05T03:45:44;100453.72;;;1.54;60.73
43071;BME280;36278;47.952;21.714;2023-04-05T03:48:09;100454.06;;;1.45;61.24
43071;BME280;36278;47.952;21.714;2023-04-05T03:50:35;100462.16;;;1.37;62.23
43071;BME280;36278;47.952;21.714;2023-04-05T03:53:00;100471.56;;;1.43;61.51
43071;BME280;36278;47.952;21.714;2023-04-05T03:55:26;100457.34;;;1.27;62.02
43071;BME280;36278;47.952;21.714;2023-04-05T03:57:52;100455.31;;;1.35;61.22
43071;BME280;36278;47.952;21.714;2023-04-05T04:00:18;100465.41;;;1.44;61.46
43071;BME280;36278;47.952;21.714;2023-04-05T04:02:46;100462.44;;;1.55;61.40
43071;BME280;36278;47.952;21.714;2023-04-05T04:05:13;100463.28;;;1.55;61.59
43071;BME280;36278;47.952;21.714;2023-04-05T04:07:39;100457.59;;;1.67;61.85
43071;BME280;36278;47.952;21.714;2023-04-05T04:10:07;100445.47;;;1.66;61.83
43071;BME280;36278;47.952;21.714;2023-04-05T04:12:33;100452.59;;;1.61;61.71
43071;BME280;36278;47.952;21.714;2023-04-05T04:14:59;100456.75;;;1.67;61.83
43071;BME280;36278;47.952;21.714;2023-04-05T04:17:26;100449.66;;;1.71;62.64
43071;BME280;36278;47.952;21.714;2023-04-05T04:19:51;100458.28;;;1.73;61.96
43071;BME280;36278;47.952;21.714;2023-04-05T04:22:17;100439.31;;;1.67;61.61
43071;BME280;36278;47.952;21.714;2023-04-05T04:24:45;100452.44;;;1.89;61.63
43071;BME280;36278;47.952;21.714;2023-04-05T04:27:17;100453.72;;;1.79;61.24
43071;BME280;36278;47.952;21.714;2023-04-05T04:29:42;100452.22;;;1.72;62.19
43071;BME280;36278;47.952;21.714;2023-04-05T04:32:14;100443.81;;;1.64;62.01
43071;BME280;36278;47.952;21.714;2023-04-05T04:34:40;100457.59;;;1.67;62.15
43071;BME280;36278;47.952;21.714;2023-04-05T04:37:12;100446.53;;;1.61;61.84
43071;BME280;36278;47.952;21.714;2023-04-05T04:39:45;100453.00;;;1.74;61.87
43071;BME280;36278;47.952;21.714;2023-04-05T04:42:12;100457.44;;;1.72;62.38
43071;BME280;36278;47.952;21.714;2023-04-05T04:44:37;100451.41;;;1.70;62.75
43071;BME280;36278;47.952;21.714;2023-04-05T04:47:03;100453.41;;;1.63;62.29
43071;BME280;36278;47.952;21.714;2023-04-05T04:49:38;100453.16;;;1.69;61.26
43071;BME280;36278;47.952;21.714;2023-04-05T04:52:04;100450.63;;;1.68;61.37
43071;BME280;36278;47.952;21.714;2023-04-05T04:54:31;100463.09;;;1.60;61.50
43071;BME280;36278;47.952;21.714;2023-04-05T04:56:58;100459.97;;;1.50;62.30
43071;BME280;36278;47.952;21.714;2023-04-05T04:59:24;100456.91;;;1.39;62.16
43071;BME280;36278;47.952;21.714;2023-04-05T05:01:50;100467.53;;;1.58;62.42
43071;BME280;36278;47.952;21.714;2023-04-05T05:04:15;100460.63;;;1.57;61.79
43071;BME280;36278;47.952;21.714;2023-04-05T05:06:40;100454.22;;;1.65;62.16
43071;BME280;36278;47.952;21.714;2023-04-05T05:09:06;100451.97;;;1.78;61.76
43071;BME280;36278;47.952;21.714;2023-04-05T05:11:32;100470.16;;;1.81;61.68
43071;BME280;36278;47.952;21.714;2023-04-05T05:13:57;100476.59;;;1.73;61.53
43071;BME280;36278;47.952;21.714;2023-04-05T05:16:23;100466.78;;;1.78;61.60
43071;BME280;36278;47.952;21.714;2023-04-05T05:18:49;100478.94;;;1.79;61.18
43071;BME280;36278;47.952;21.714;2023-04-05T05:21:15;100470.09;;;1.83;61.00
43071;BME280;36278;47.952;21.714;2023-04-05T05:23:41;100463.28;;;1.79;61.58
43071;BME280;36278;47.952;21.714;2023-04-05T05:26:06;100476.66;;;1.69;60.88
43071;BME280;36278;47.952;21.714;2023-04-05T05:28:32;100469.97;;;1.86;60.99
43071;BME280;36278;47.952;21.714;2023-04-05T05:30:57;100480.31;;;1.89;61.84
43071;BME280;36278;47.952;21.714;2023-04-05T05:33:23;100487.47;;;1.84;61.55
43071;BME280;36278;47.952;21.714;2023-04-05T05:35:49;100479.41;;;1.90;61.89
43071;BME280;36278;47.952;21.714;2023-04-05T05:38:16;100481.63;;;2.01;61.54
43071;BME280;36278;47.952;21.714;2023-04-05T05:40:42;100480.25;;;2.14;61.17
43071;BME280;36278;47.952;21.714;2023-04-05T05:43:08;100478.34;;;2.17;60.45
43071;BME280;36278;47.952;21.714;2023-04-05T05:45:35;100486.09;;;2.20;61.13
43071;BME280;36278;47.952;21.714;2023-04-05T05:48:00;100480.59;;;2.27;60.92
43071;BME280;36278;47.952;21.714;2023-04-05T05:50:26;100471.00;;;2.49;61.11
43071;BME280;36278;47.952;21.714;2023-04-05T05:52:51;100469.47;;;2.43;59.66
43071;BME280;36278;47.952;21.714;2023-04-05T05:55:17;100471.31;;;2.41;59.72
43071;BME280;36278;47.952;21.714;2023-04-05T05:57:43;100467.25;;;2.34;60.47
43071;BME280;36278;47.952;21.714;2023-04-05T06:00:09;100476.78;;;2.57;58.99
43071;BME280;36278;47.952;21.714;2023-04-05T06:02:35;100478.69;;;2.53;59.54
43071;BME280;36278;47.952;21.714;2023-04-05T06:05:01;100462.19;;;2.51;58.91
43071;BME280;36278;47.952;21.714;2023-04-05T06:07:27;100467.31;;;2.55;59.39
43071;BME280;36278;47.952;21.714;2023-04-05T06:09:52;100467.78;;;2.64;59.32
43071;BME280;36278;47.952;21.714;2023-04-05T06:12:21;100480.72;;;2.67;59.10
43071;BME280;36278;47.952;21.714;2023-04-05T06:14:46;100476.06;;;2.53;58.89
43071;BME280;36278;47.952;21.714;2023-04-05T06:17:11;100474.47;;;2.71;58.69
43071;BME280;36278;47.952;21.714;2023-04-05T06:19:37;100480.88;;;2.85;59.01
43071;BME280;36278;47.952;21.714;2023-04-05T06:22:02;100481.59;;;3.10;58.03
43071;BME280;36278;47.952;21.714;2023-04-05T06:24:28;100478.91;;;3.12;57.72
43071;BME280;36278;47.952;21.714;2023-04-05T06:26:59;100473.03;;;3.27;58.07
43071;BME280;36278;47.952;21.714;2023-04-05T06:29:25;100474.25;;;3.38;57.44
43071;BME280;36278;47.952;21.714;2023-04-05T06:31:51;100462.06;;;3.37;57.41
43071;BME280;36278;47.952;21.714;2023-04-05T06:34:16;100473.72;;;3.51;56.17
43071;BME280;36278;47.952;21.714;2023-04-05T06:36:42;100466.66;;;3.72;55.67
43071;BME280;36278;47.952;21.714;2023-04-05T06:39:08;100464.03;;;3.90;55.89
43071;BME280;36278;47.952;21.714;2023-04-05T06:41:33;100471.44;;;4.01;56.12
43071;BME280;36278;47.952;21.714;2023-04-05T06:43:59;100480.75;;;4.07;55.30
43071;BME280;36278;47.952;21.714;2023-04-05T06:46:24;100473.59;;;3.73;56.12
43071;BME280;36278;47.952;21.714;2023-04-05T06:48:51;100479.44;;;4.17;54.12
43071;BME280;36278;47.952;21.714;2023-04-05T06:51:17;100473.97;;;4.40;53.92
43071;BME280;36278;47.952;21.714;2023-04-05T06:53:43;100478.38;;;4.40;53.58
43071;BME280;36278;47.952;21.714;2023-04-05T06:56:08;100474.09;;;4.56;52.97
43071;BME280;36278;47.952;21.714;2023-04-05T06:58:34;100480.66;;;4.46;53.55
43071;BME280;36278;47.952;21.714;2023-04-05T07:01:00;100487.88;;;4.24;53.78
43071;BME280;36278;47.952;21.714;2023-04-05T07:03:26;100490.00;;;4.15;54.48
43071;BME280;36278;47.952;21.714;2023-04-05T07:05:53;100484.88;;;4.12;53.47
43071;BME280;36278;47.952;21.714;2023-04-05T07:08:20;100496.59;;;4.60;52.73
43071;BME280;36278;47.952;21.714;2023-04-05T07:10:46;100494.16;;;4.38;52.28
43071;BME280;36278;47.952;21.714;2023-04-05T07:13:12;100479.19;;;4.76;52.20
43071;BME280;36278;47.952;21.714;2023-04-05T07:15:37;100498.16;;;4.64;52.63
43071;BME280;36278;47.952;21.714;2023-04-05T07:18:03;100490.16;;;4.67;52.36
43071;BME280;36278;47.952;21.714;2023-04-05T07:20:28;100495.63;;;4.80;52.33
43071;BME280;36278;47.952;21.714;2023-04-05T07:22:53;100506.53;;;4.72;52.72
43071;BME280;36278;47.952;21.714;2023-04-05T07:25:19;100517.38;;;4.46;52.60
43071;BME280;36278;47.952;21.714;2023-04-05T07:27:45;100500.97;;;4.42;53.89
43071;BME280;36278;47.952;21.714;2023-04-05T07:30:11;100505.44;;;4.76;52.79
43071;BME280;36278;47.952;21.714;2023-04-05T07:32:38;100501.34;;;4.88;51.60
43071;BME280;36278;47.952;21.714;2023-04-05T07:35:03;100495.13;;;4.91;51.86
43071;BME280;36278;47.952;21.714;2023-04-05T07:37:29;100497.28;;;5.00;51.95
43071;BME280;36278;47.952;21.714;2023-04-05T07:39:55;100492.72;;;5.03;51.77
43071;BME280;36278;47.952;21.714;2023-04-05T07:42:22;100497.97;;;5.03;51.80
43071;BME280;36278;47.952;21.714;2023-04-05T07:44:48;100475.44;;;4.82;51.68
43071;BME280;36278;47.952;21.714;2023-04-05T07:47:13;100494.78;;;4.43;53.11
43071;BME280;36278;47.952;21.714;2023-04-05T07:49:39;100489.94;;;4.53;53.02
43071;BME280;36278;47.952;21.714;2023-04-05T07:52:04;100484.31;;;4.25;53.28
43071;BME280;36278;47.952;21.714;2023-04-05T07:54:31;100488.91;;;4.57;53.36
43071;BME280;36278;47.952;21.714;2023-04-05T07:56:58;100482.28;;;5.02;52.42
43071;BME280;36278;47.952;21.714;2023-04-05T07:59:25;100497.44;;;5.14;51.88
43071;BME280;36278;47.952;21.714;2023-04-05T08:01:51;100485.78;;;5.02;52.54
43071;BME280;36278;47.952;21.714;2023-04-05T08:04:17;100488.16;;;5.24;52.93
43071;BME280;36278;47.952;21.714;2023-04-05T08:06:43;100489.25;;;5.38;50.77
43071;BME280;36278;47.952;21.714;2023-04-05T08:09:09;100492.78;;;5.37;51.28
43071;BME280;36278;47.952;21.714;2023-04-05T08:11:35;100464.72;;;5.37;50.52
43071;BME280;36278;47.952;21.714;2023-04-05T08:14:00;100489.88;;;5.25;50.80
43071;BME280;36278;47.952;21.714;2023-04-05T08:16:26;100479.59;;;5.03;49.83
43071;BME280;36278;47.952;21.714;2023-04-05T08:18:52;100477.81;;;5.39;49.76
43071;BME280;36278;47.952;21.714;2023-04-05T08:21:17;100475.44;;;5.67;49.70
43071;BME280;36278;47.952;21.714;2023-04-05T08:23:43;100468.19;;;5.88;50.41
43071;BME280;36278;47.952;21.714;2023-04-05T08:26:09;100473.31;;;5.91;50.42
43071;BME280;36278;47.952;21.714;2023-04-05T08:28:34;100472.97;;;5.97;49.93
43071;BME280;36278;47.952;21.714;2023-04-05T08:31:00;100475.53;;;5.99;48.30
43071;BME280;36278;47.952;21.714;2023-04-05T08:33:25;100471.63;;;6.22;48.57
43071;BME280;36278;47.952;21.714;2023-04-05T08:35:55;100476.13;;;6.04;48.12
43071;BME280;36278;47.952;21.714;2023-04-05T08:38:21;100471.97;;;6.15;47.72
43071;BME280;36278;47.952;21.714;2023-04-05T08:40:47;100475.63;;;6.13;47.90
43071;BME280;36278;47.952;21.714;2023-04-05T08:43:32;100480.50;;;5.87;48.20
43071;BME280;36278;47.952;21.714;2023-04-05T08:46:02;100467.28;;;5.56;48.72
43071;BME280;36278;47.952;21.714;2023-04-05T08:48:30;100474.28;;;5.88;48.82
43071;BME280;36278;47.952;21.714;2023-04-05T08:50:56;100475.88;;;6.08;49.35
43071;BME280;36278;47.952;21.714;2023-04-05T08:53:22;100479.44;;;6.23;48.48
43071;BME280;36278;47.952;21.714;2023-04-05T08:55:54;100466.19;;;6.56;47.33
43071;BME280;36278;47.952;21.714;2023-04-05T08:58:22;100469.63;;;6.72;46.84
43071;BME280;36278;47.952;21.714;2023-04-05T09:00:50;100484.91;;;6.82;47.03
43071;BME280;36278;47.952;21.714;2023-04-05T09:03:22;100467.63;;;6.62;46.79
43071;BME280;36278;47.952;21.714;2023-04-05T09:05:51;100459.22;;;6.55;48.56
43071;BME280;36278;47.952;21.714;2023-04-05T09:08:18;100471.34;;;6.73;49.46
43071;BME280;36278;47.952;21.714;2023-04-05T09:10:48;100467.53;;;7.09;46.26
43071;BME280;36278;47.952;21.714;2023-04-05T09:13:15;100468.69;;;7.34;47.64
43071;BME280;36278;47.952;21.714;2023-04-05T09:15:40;100466.44;;;6.97;46.06
43071;BME280;36278;47.952;21.714;2023-04-05T09:18:06;100474.28;;;7.13;46.24
43071;BME280;36278;47.952;21.714;2023-04-05T09:20:31;100459.72;;;6.92;47.28
43071;BME280;36278;47.952;21.714;2023-04-05T09:22:57;100461.06;;;7.29;45.30
43071;BME280;36278;47.952;21.714;2023-04-05T09:25:37;100462.16;;;7.11;46.83
43071;BME280;36278;47.952;21.714;2023-04-05T09:28:05;100455.25;;;6.94;47.89
43071;BME280;36278;47.952;21.714;2023-04-05T09:30:32;100463.66;;;7.15;47.17
43071;BME280;36278;47.952;21.714;2023-04-05T09:32:58;100468.75;;;7.32;45.16
43071;BME280;36278;47.952;21.714;2023-04-05T09:35:26;100460.22;;;7.28;44.94
43071;BME280;36278;47.952;21.714;2023-04-05T09:37:57;100463.03;;;7.40;45.29
43071;BME280;36278;47.952;21.714;2023-04-05T09:40:24;100463.44;;;7.62;44.49
43071;BME280;36278;47.952;21.714;2023-04-05T09:43:04;100458.97;;;7.20;45.47
43071;BME280;36278;47.952;21.714;2023-04-05T09:45:29;100464.16;;;7.21;45.20
43071;BME280;36278;47.952;21.714;2023-04-05T09:48:02;100441.88;;;7.98;44.81
43071;BME280;36278;47.952;21.714;2023-04-05T09:50:28;100453.81;;;7.90;44.06
43071;BME280;36278;47.952;21.714;2023-04-05T09:53:09;100462.66;;;8.03;43.96
43071;BME280;36278;47.952;21.714;2023-04-05T09:55:41;100449.22;;;8.49;43.17
43071;BME280;36278;47.952;21.714;2023-04-05T09:58:31;100441.91;;;8.79;43.84
43071;BME280;36278;47.952;21.714;2023-04-05T10:00:56;100453.03;;;8.16;43.53
43071;BME280;36278;47.952;21.714;2023-04-05T10:03:24;100448.75;;;7.72;44.68
43071;BME280;36278;47.952;21.714;2023-04-05T10:05:54;100453.22;;;8.13;45.19
43071;BME280;36278;47.952;21.714;2023-04-05T10:08:21;100451.03;;;8.20;43.64
43071;BME280;36278;47.952;21.714;2023-04-05T10:10:49;100452.06;;;8.31;44.24
43071;BME280;36278;47.952;21.714;2023-04-05T10:13:17;100450.88;;;8.64;43.56
43071;BME280;36278;47.952;21.714;2023-04-05T10:15:46;100436.00;;;8.76;42.51
43071;BME280;36278;47.952;21.714;2023-04-05T10:18:20;100436.91;;;8.62;43.04
43071;BME280;36278;47.952;21.714;2023-04-05T10:20:53;100457.16;;;8.20;43.35
43071;BME280;36278;47.952;21.714;2023-04-05T10:23:24;100442.66;;;8.41;43.39
43071;BME280;36278;47.952;21.714;2023-04-05T10:28:46;100429.78;;;8.08;44.06
43071;BME280;36278;47.952;21.714;2023-04-05T10:33:49;100440.84;;;8.28;43.69
43071;BME280;36278;47.952;21.714;2023-04-05T10:41:18;100438.88;;;8.85;42.70
43071;BME280;36278;47.952;21.714;2023-04-05T10:43:44;100435.19;;;8.61;41.89
43071;BME280;36278;47.952;21.714;2023-04-05T10:46:10;100452.25;;;8.28;43.35
43071;BME280;36278;47.952;21.714;2023-04-05T10:48:57;100443.84;;;8.50;43.05
43071;BME280;36278;47.952;21.714;2023-04-05T10:51:25;100438.50;;;9.17;41.45
43071;BME280;36278;47.952;21.714;2023-04-05T10:53:53;100443.28;;;9.50;41.26
43071;BME280;36278;47.952;21.714;2023-04-05T10:56:21;100433.69;;;9.98;39.55
43071;BME280;36278;47.952;21.714;2023-04-05T10:58:48;100432.78;;;9.74;40.43
43071;BME280;36278;47.952;21.714;2023-04-05T11:01:16;100431.22;;;10.08;39.90
43071;BME280;36278;47.952;21.714;2023-04-05T11:03:48;100441.69;;;9.73;41.92
43071;BME280;36278;47.952;21.714;2023-04-05T11:08:59;100440.69;;;8.97;41.63
43071;BME280;36278;47.952;21.714;2023-04-05T11:11:25;100453.34;;;8.80;43.25
43071;BME280;36278;47.952;21.714;2023-04-05T11:13:55;100442.34;;;8.73;41.29
43071;BME280;36278;47.952;21.714;2023-04-05T11:16:23;100448.34;;;9.40;41.26
43071;BME280;36278;47.952;21.714;2023-04-05T11:18:50;100443.69;;;9.44;41.13
43071;BME280;36278;47.952;21.714;2023-04-05T11:21:21;100433.19;;;10.43;39.50
43071;BME280;36278;47.952;21.714;2023-04-05T11:24:06;100449.84;;;10.19;39.89
43071;BME280;36278;47.952;21.714;2023-04-05T11:26:51;100457.03;;;10.30;39.25
43071;BME280;36278;47.952;21.714;2023-04-05T11:29:19;100444.34;;;10.09;38.96
43071;BME280;36278;47.952;21.714;2023-04-05T11:32:11;100444.16;;;10.49;41.32
43071;BME280;36278;47.952;21.714;2023-04-05T11:34:40;100446.06;;;10.71;39.20
43071;BME280;36278;47.952;21.714;2023-04-05T11:37:06;100437.97;;;11.43;37.79
43071;BME280;36278;47.952;21.714;2023-04-05T11:39:31;100416.50;;;11.68;39.03
43071;BME280;36278;47.952;21.714;2023-04-05T11:41:58;100442.00;;;11.13;38.69
43071;BME280;36278;47.952;21.714;2023-04-05T11:44:26;100450.63;;;10.93;37.83
43071;BME280;36278;47.952;21.714;2023-04-05T11:46:54;100437.25;;;11.63;36.47
43071;BME280;36278;47.952;21.714;2023-04-05T11:49:21;100439.09;;;11.96;36.21
43071;BME280;36278;47.952;21.714;2023-04-05T11:51:51;100443.66;;;11.03;38.05
43071;BME280;36278;47.952;21.714;2023-04-05T11:54:28;100442.75;;;11.27;37.39
43071;BME280;36278;47.952;21.714;2023-04-05T11:56:53;100437.41;;;11.15;36.80
43071;BME280;36278;47.952;21.714;2023-04-05T11:59:30;100420.97;;;12.24;36.20
43071;BME280;36278;47.952;21.714;2023-04-05T12:02:01;100432.00;;;13.04;34.53
43071;BME280;36278;47.952;21.714;2023-04-05T12:04:28;100437.88;;;11.67;36.93
43071;BME280;36278;47.952;21.714;2023-04-05T12:07:16;100434.84;;;12.16;36.58
43071;BME280;36278;47.952;21.714;2023-04-05T12:12:42;100422.56;;;13.11;35.10
43071;BME280;36278;47.952;21.714;2023-04-05T12:15:09;100415.28;;;13.95;34.40
43071;BME280;36278;47.952;21.714;2023-04-05T12:20:09;100411.63;;;14.95;32.30
43071;BME280;36278;47.952;21.714;2023-04-05T12:22:36;100412.78;;;14.92;32.13
43071;BME280;36278;47.952;21.714;2023-04-05T12:25:02;100406.31;;;15.61;32.00
43071;BME280;36278;47.952;21.714;2023-04-05T12:27:28;100401.09;;;15.69;31.27
43071;BME280;36278;47.952;21.714;2023-04-05T12:30:26;100399.19;;;16.34;30.70
43071;BME280;36278;47.952;21.714;2023-04-05T12:32:53;100414.53;;;15.40;30.95
43071;BME280;36278;47.952;21.714;2023-04-05T12:35:21;100405.34;;;15.52;31.22
43071;BME280;36278;47.952;21.714;2023-04-05T12:37:51;100423.28;;;14.65;32.97
43071;BME280;36278;47.952;21.714;2023-04-05T12:40:23;100402.50;;;15.54;31.73
43071;BME280;36278;47.952;21.714;2023-04-05T12:42:49;100422.34;;;13.45;34.04
43071;BME280;36278;47.952;21.714;2023-04-05T12:45:15;100411.31;;;12.12;35.33
43071;BME280;36278;47.952;21.714;2023-04-05T12:47:55;100408.97;;;12.29;36.90
43071;BME280;36278;47.952;21.714;2023-04-05T12:50:27;100418.09;;;11.48;36.36
43071;BME280;36278;47.952;21.714;2023-04-05T12:52:55;100402.81;;;12.40;35.88
43071;BME280;36278;47.952;21.714;2023-04-05T12:55:20;100395.09;;;12.90;35.79
43071;BME280;36278;47.952;21.714;2023-04-05T12:57:53;100398.25;;;12.84;34.13
43071;BME280;36278;47.952;21.714;2023-04-05T13:00:19;100405.41;;;12.83;36.18
43071;BME280;36278;47.952;21.714;2023-04-05T13:02:52;100404.44;;;12.52;36.19
43071;BME280;36278;47.952;21.714;2023-04-05T13:05:26;100406.94;;;12.65;34.55
43071;BME280;36278;47.952;21.714;2023-04-05T13:07:52;100401.06;;;11.51;36.58
43071;BME280;36278;47.952;21.714;2023-04-05T13:10:19;100399.16;;;11.42;36.58
43071;BME280;36278;47.952;21.714;2023-04-05T13:12:44;100405.41;;;11.97;36.25
43071;BME280;36278;47.952;21.714;2023-04-05T13:15:10;100391.41;;;11.95;36.09
43071;BME280;36278;47.952;21.714;2023-04-05T13:17:43;100394.69;;;11.42;37.05
43071;BME280;36278;47.952;21.714;2023-04-05T13:20:14;100396.66;;;11.05;37.68
43071;BME280;36278;47.952;21.714;2023-04-05T13:22:40;100401.06;;;11.51;38.49
43071;BME280;36278;47.952;21.714;2023-04-05T13:25:06;100394.06;;;12.06;36.10